Time;durP1;ratioP1;P1;durP2;ratioP2;P2;SDS_P1;SDS_P2;PMS_P1;PMS_P2;Temp;Humidity;BMP_temperature;BMP_pressure;BME280_temperature;BME280_humidity;BME280_pressure;Samples;Min_cycle;Max_cycle;Signal;HPM_P1;HPM_P2
2023/05/23 07:30:26;;;;;;;58.72;19.95;;;;;;;23.22;56.43;100328.78;5133329;27;20410;-66
2023/05/23 07:36:54;;;;;;;4.20;3.55;;;;;;;23.26;55.76;100331.94;4340018;27;10001270;-82
2023/05/23 07:39:21;;;;;;;25.70;10.77;;;;;;;23.22;56.23;100328.78;5028438;28;20265;-81
2023/05/23 07:41:47;;;;;;;28.30;6.45;;;;;;;22.97;56.17;100322.25;5048761;28;20044;-80
2023/05/23 07:44:13;;;;;;;21.58;5.00;;;;;;;22.85;56.69;100331.34;5051791;28;20033;-82
2023/05/23 07:46:38;;;;;;;28.35;6.57;;;;;;;22.97;56.46;100324.16;5054480;28;20415;-81
2023/05/23 07:49:04;;;;;;;20.73;7.30;;;;;;;22.99;56.29;100335.78;5062452;28;20093;-85
2023/05/23 07:51:30;;;;;;;20.15;5.05;;;;;;;22.87;56.52;100321.03;5060754;28;20388;-85
2023/05/23 07:53:55;;;;;;;16.17;5.75;;;;;;;22.84;56.87;100322.31;5051625;28;20025;-87
2023/05/23 07:56:21;;;;;;;14.35;5.15;;;;;;;22.96;56.45;100333.47;5050586;28;20029;-87
2023/05/23 07:58:47;;;;;;;16.85;6.25;;;;;;;22.96;56.47;100345.28;5046502;28;20056;-87
2023/05/23 08:01:13;;;;;;;18.13;5.10;;;;;;;22.91;56.52;100335.97;5047545;28;20480;-87
2023/05/23 08:03:38;;;;;;;36.65;6.65;;;;;;;22.99;56.95;100338.53;5048001;28;20033;-87
2023/05/23 08:06:05;;;;;;;49.13;9.73;;;;;;;23.08;56.25;100345.47;5051319;28;20033;-84
2023/05/23 08:08:31;;;;;;;31.67;6.70;;;;;;;23.00;56.77;100342.94;5062654;28;20025;-84
2023/05/23 08:10:56;;;;;;;24.02;6.15;;;;;;;23.06;56.02;100344.84;5060951;28;20033;-85
2023/05/23 08:13:22;;;;;;;30.08;6.45;;;;;;;23.06;56.35;100336.59;5046594;28;20468;-84
2023/05/23 08:15:47;;;;;;;11.27;5.22;;;;;;;22.89;56.45;100338.09;5046117;28;20515;-79
2023/05/23 08:18:12;;;;;;;37.60;8.32;;;;;;;23.05;56.81;100333.03;5046318;28;20407;-84
2023/05/23 08:20:38;;;;;;;14.32;6.13;;;;;;;23.23;56.40;100332.38;5046909;28;20464;-83
2023/05/23 08:23:03;;;;;;;13.27;5.10;;;;;;;23.33;55.07;100317.13;5046035;28;20029;-80
2023/05/23 08:25:29;;;;;;;10.13;4.20;;;;;;;23.49;54.16;100315.00;5046869;28;20079;-94
2023/05/23 08:27:57;;;;;;;21.42;6.22;;;;;;;23.61;53.99;100314.13;5044662;28;20206;-84
2023/05/23 08:30:24;;;;;;;16.73;5.18;;;;;;;23.61;53.78;100325.09;5047754;28;20334;-83
2023/05/23 08:32:50;;;;;;;19.75;5.63;;;;;;;23.43;54.34;100311.22;5029887;28;20026;-83
2023/05/23 08:35:16;;;;;;;28.50;6.53;;;;;;;23.38;55.58;100305.53;5005775;28;20077;-82
2023/05/23 08:37:41;;;;;;;12.55;5.20;;;;;;;23.20;55.74;100297.13;5007851;28;20473;-82
2023/05/23 08:40:17;;;;;;;20.25;5.18;;;;;;;23.73;55.67;100317.88;5008341;28;20034;-82
2023/05/23 08:42:43;;;;;;;92.38;13.38;;;;;;;23.94;54.15;100315.91;5008048;28;20026;-84
2023/05/23 08:45:09;;;;;;;21.67;5.57;;;;;;;24.02;53.90;100310.13;5011023;28;20034;-81
2023/05/23 08:47:37;;;;;;;14.00;4.90;;;;;;;24.01;53.72;100316.69;5002800;28;20035;-84
2023/05/23 08:50:06;;;;;;;41.65;7.38;;;;;;;23.90;54.07;100318.25;4994128;28;20099;-83
2023/05/23 08:52:32;;;;;;;14.88;5.05;;;;;;;23.92;53.38;100326.25;4994004;28;20034;-85
2023/05/23 08:55:00;;;;;;;22.25;6.78;;;;;;;23.50;54.05;100303.81;4993618;28;20030;-83
2023/05/23 08:57:27;;;;;;;19.63;6.85;;;;;;;23.71;54.43;100321.91;4992787;28;20031;-79
2023/05/23 08:59:54;;;;;;;20.65;5.80;;;;;;;23.50;54.82;100322.19;4992700;28;20037;-78
2023/05/23 09:02:21;;;;;;;21.55;5.32;;;;;;;23.76;54.93;100325.69;4992233;28;20029;-80
2023/05/23 09:04:46;;;;;;;27.33;6.68;;;;;;;23.78;54.35;100315.34;4992796;28;20088;-83
2023/05/23 09:07:15;;;;;;;19.48;6.80;;;;;;;23.79;54.61;100317.00;4993026;28;20030;-83
2023/05/23 09:09:41;;;;;;;32.78;8.25;;;;;;;23.69;57.08;100327.63;4993111;28;20509;-81
2023/05/23 09:12:07;;;;;;;14.55;6.63;;;;;;;23.60;58.28;100314.34;4993045;28;20031;-83
2023/05/23 09:14:32;;;;;;;29.05;8.75;;;;;;;23.37;60.56;100316.69;4992479;28;20033;-80
2023/05/23 09:17:01;;;;;;;16.80;7.03;;;;;;;23.30;61.44;100305.78;4992908;28;20423;-84
2023/05/23 09:19:27;;;;;;;15.32;7.13;;;;;;;23.13;61.19;100310.00;4991520;28;20505;-81
2023/05/23 09:22:49;;;;;;;25.42;7.70;;;;;;;22.91;62.26;100311.28;4993419;28;20026;-86
2023/05/23 09:25:29;;;;;;;38.35;9.63;;;;;;;22.46;63.43;100311.06;4973895;28;20053;-86
2023/05/23 09:27:58;;;;;;;30.50;7.47;;;;;;;22.10;64.42;100285.94;4956419;28;20074;-85
2023/05/23 09:30:24;;;;;;;28.02;8.80;;;;;;;22.20;64.97;100291.84;4972408;28;20119;-86
2023/05/23 09:32:58;;;;;;;18.45;8.40;;;;;;;22.18;65.23;100321.34;4971973;28;20081;-83
2023/05/23 09:35:24;;;;;;;19.42;8.40;;;;;;;22.35;65.12;100327.28;5009160;28;20494;-80
2023/05/23 09:37:51;;;;;;;14.60;8.20;;;;;;;22.28;65.25;100327.28;4987058;28;20072;-80
2023/05/23 09:40:16;;;;;;;18.45;7.75;;;;;;;22.18;64.75;100316.72;4990488;28;20059;-82
2023/05/23 09:42:46;;;;;;;20.75;8.05;;;;;;;21.90;66.28;100331.56;4992335;28;20482;-82
2023/05/23 09:45:13;;;;;;;26.98;8.85;;;;;;;21.77;67.01;100334.25;4991425;28;20441;-80
2023/05/23 09:47:38;;;;;;;17.92;7.97;;;;;;;21.23;68.15;100307.66;4989522;28;20034;-83
2023/05/23 09:50:05;;;;;;;22.92;9.10;;;;;;;20.70;70.21;100330.16;4990014;28;20116;-84
2023/05/23 09:52:39;;;;;;;18.05;8.45;;;;;;;20.57;71.87;100348.16;4990341;28;20026;-85
2023/05/23 09:55:05;;;;;;;21.70;8.88;;;;;;;20.37;73.10;100351.69;4990117;28;20042;-86
2023/05/23 09:57:35;;;;;;;33.05;9.05;;;;;;;20.38;73.17;100356.97;4973923;28;20658;-81
2023/05/23 10:00:05;;;;;;;26.33;10.15;;;;;;;20.31;73.94;100358.78;4989084;28;20054;-83
2023/05/23 10:02:58;;;;;;;23.13;9.20;;;;;;;20.20;73.36;100358.44;5008262;28;20038;-83
2023/05/23 10:05:30;;;;;;;22.10;9.60;;;;;;;20.28;73.19;100364.66;5026584;28;20040;-81
2023/05/23 10:07:59;;;;;;;18.63;8.70;;;;;;;20.28;72.67;100361.91;5016758;28;20109;-81
2023/05/23 10:10:29;;;;;;;32.88;10.35;;;;;;;20.50;72.17;100360.03;5011489;28;20033;-88
2023/05/23 10:12:58;;;;;;;26.08;9.32;;;;;;;20.75;71.32;100344.94;5012267;28;20117;-86
2023/05/23 10:15:26;;;;;;;25.33;9.50;;;;;;;20.93;70.44;100347.16;5010498;28;20042;-88
2023/05/23 10:18:09;;;;;;;30.52;9.00;;;;;;;20.87;70.62;100350.69;5029319;28;20030;-88
2023/05/23 10:20:38;;;;;;;29.67;9.85;;;;;;;20.54;71.58;100354.00;5012714;28;20397;-88
2023/05/23 10:23:04;;;;;;;29.23;8.75;;;;;;;20.17;72.28;100343.28;5012902;28;20065;-87
2023/05/23 10:25:30;;;;;;;23.27;8.73;;;;;;;19.87;72.53;100341.69;5012435;28;20116;-87
2023/05/23 10:28:00;;;;;;;20.23;9.25;;;;;;;19.81;73.22;100356.94;5014792;28;20034;-87
2023/05/23 10:30:27;;;;;;;28.70;9.18;;;;;;;19.74;74.59;100371.53;5015957;28;20018;-85
2023/05/23 10:32:54;;;;;;;38.65;10.35;;;;;;;19.60;74.78;100354.13;5018931;28;20034;-88
2023/05/23 10:35:51;;;;;;;24.20;8.38;;;;;;;19.54;75.00;100365.78;4996605;28;20556;-88
2023/05/23 10:38:34;;;;;;;22.17;10.45;;;;;;;19.31;74.84;100332.28;5029542;28;20026;-87
2023/05/23 10:41:09;;;;;;;33.28;9.98;;;;;;;19.46;75.63;100364.03;5023318;28;20022;-90
2023/05/23 10:44:15;;;;;;;17.70;8.57;;;;;;;19.41;77.93;100380.13;5015710;28;20101;-87
2023/05/23 10:46:56;;;;;;;11.88;7.75;;;;;;;19.14;80.14;100368.97;5012596;28;20076;-88
2023/05/23 10:49:38;;;;;;;15.10;7.55;;;;;;;18.94;80.98;100361.31;5012975;28;20105;-89
2023/05/23 10:52:06;;;;;;;23.05;9.07;;;;;;;19.10;81.49;100382.13;5014190;28;20061;-84
2023/05/23 10:54:51;;;;;;;37.38;9.43;;;;;;;19.01;82.19;100372.31;5016833;28;20048;-86
2023/05/23 10:57:27;;;;;;;24.48;9.32;;;;;;;18.87;83.19;100389.47;5012585;28;20621;-84
2023/05/23 10:59:53;;;;;;;25.55;10.57;;;;;;;19.11;84.37;100400.16;5013043;28;20061;-88
2023/05/23 11:02:25;;;;;;;37.03;10.90;;;;;;;19.19;84.82;100405.53;5013830;28;20117;-83
2023/05/23 11:05:21;;;;;;;34.25;11.65;;;;;;;19.24;85.66;100396.78;5017044;28;20155;-84
2023/05/23 11:08:12;;;;;;;23.70;11.57;;;;;;;19.34;86.34;100376.41;4992615;28;20180;-84
2023/05/23 11:11:01;;;;;;;26.98;11.13;;;;;;;19.44;86.43;100385.19;4964728;28;20488;-84
2023/05/23 11:14:01;;;;;;;28.45;11.20;;;;;;;19.72;86.26;100382.66;4962108;29;20031;-84
2023/05/23 11:16:26;;;;;;;33.05;11.07;;;;;;;19.81;85.10;100384.25;4962870;28;20043;-83
2023/05/23 11:19:18;;;;;;;23.13;9.25;;;;;;;19.92;83.71;100380.16;4950428;29;20407;-81
2023/05/23 11:21:44;;;;;;;29.35;11.45;;;;;;;19.69;83.67;100363.06;4963611;28;20202;-84
2023/05/23 11:24:10;;;;;;;23.95;10.82;;;;;;;20.03;84.10;100382.38;4952431;29;20032;-83
2023/05/23 11:26:35;;;;;;;25.63;10.98;;;;;;;20.10;84.05;100377.84;4954156;29;20039;-84
2023/05/23 11:29:02;;;;;;;32.13;10.57;;;;;;;20.22;83.71;100365.38;4963750;28;20055;-87
2023/05/23 11:31:29;;;;;;;22.58;10.15;;;;;;;20.40;82.99;100374.00;4959348;29;20132;-81
2023/05/23 11:33:55;;;;;;;21.70;11.00;;;;;;;20.09;81.98;100366.09;4957077;29;20077;-84
2023/05/23 11:36:21;;;;;;;21.83;11.23;;;;;;;20.16;82.72;100376.22;4967331;28;20059;-90
2023/05/23 11:38:49;;;;;;;14.88;9.50;;;;;;;20.12;82.63;100364.84;4966343;28;20122;-91
2023/05/23 11:41:14;;;;;;;21.70;10.18;;;;;;;20.29;82.42;100382.72;4957231;29;20028;-88
2023/05/23 11:43:51;;;;;;;15.80;10.00;;;;;;;20.27;81.00;100368.44;4957590;28;20388;-85
2023/05/23 11:46:17;;;;;;;20.25;10.93;;;;;;;20.37;80.44;100363.47;4971396;28;20030;-84
2023/05/23 11:48:46;;;;;;;21.55;10.20;;;;;;;20.28;79.69;100370.09;4991528;28;20129;-95
2023/05/23 11:51:12;;;;;;;23.65;9.52;;;;;;;20.49;79.52;100372.00;4988421;28;20048;-87
2023/05/23 11:53:38;;;;;;;26.35;10.82;;;;;;;20.66;79.84;100369.88;4994249;28;20549;-85
2023/05/23 11:56:04;;;;;;;19.15;10.00;;;;;;;20.74;78.64;100372.44;4994496;28;20057;-85
2023/05/23 11:58:38;;;;;;;24.95;10.13;;;;;;;20.70;78.74;100369.28;4993806;28;20397;-84
2023/05/23 12:01:05;;;;;;;16.58;8.43;;;;;;;20.57;77.42;100353.63;4993184;28;20041;-85
2023/05/23 12:03:32;;;;;;;19.33;8.27;;;;;;;20.52;76.29;100372.47;4992611;28;20034;-87
2023/05/23 12:05:58;;;;;;;29.73;10.98;;;;;;;20.55;76.54;100357.56;4997773;28;20030;-90
2023/05/23 12:08:26;;;;;;;26.17;10.30;;;;;;;20.69;77.24;100362.13;5003632;28;20128;-90
2023/05/23 12:11:00;;;;;;;38.28;9.07;;;;;;;20.57;77.61;100363.69;5003551;28;20145;-92
2023/05/23 12:13:28;;;;;;;21.55;8.35;;;;;;;20.28;78.30;100348.25;4978069;28;20086;-95
2023/05/23 12:15:58;;;;;;;15.55;8.90;;;;;;;20.36;78.27;100350.03;4975888;28;20046;-81
2023/05/23 12:18:27;;;;;;;35.08;9.15;;;;;;;20.50;77.19;100352.69;4978501;28;20042;-87
2023/05/23 12:20:53;;;;;;;31.58;9.15;;;;;;;20.40;76.70;100357.63;4974560;28;20043;-84
2023/05/23 12:23:23;;;;;;;14.93;7.97;;;;;;;19.97;76.34;100334.00;4980398;28;20042;-82
2023/05/23 12:25:53;;;;;;;26.95;10.10;;;;;;;19.81;77.12;100321.47;4993256;28;20031;-88
2023/05/23 12:28:20;;;;;;;31.17;10.48;;;;;;;20.19;77.41;100360.31;4976290;28;20103;-88
2023/05/23 12:30:45;;;;;;;71.00;12.65;;;;;;;20.18;77.12;100352.31;4958076;28;20110;-81
2023/05/23 12:33:11;;;;;;;26.00;10.23;;;;;;;20.35;77.54;100357.38;4978400;28;20051;-83
2023/05/23 12:35:37;;;;;;;31.95;10.27;;;;;;;20.19;75.93;100338.47;4990086;28;20077;-85
2023/05/23 12:38:08;;;;;;;21.35;9.70;;;;;;;20.19;77.00;100349.38;4979609;28;20055;-90
2023/05/23 12:40:34;;;;;;;38.92;11.32;;;;;;;20.29;76.68;100328.09;4975695;28;20144;-91
2023/05/23 12:43:00;;;;;;;20.50;9.27;;;;;;;20.55;74.67;100325.63;4963587;28;20093;-93
2023/05/23 12:45:35;;;;;;;47.10;10.70;;;;;;;20.80;73.17;100320.56;4997944;28;20046;-92
2023/05/23 12:48:07;;;;;;;48.97;11.02;;;;;;;20.96;71.75;100338.56;4986704;28;20125;-92
2023/05/23 12:50:33;;;;;;;25.38;8.30;;;;;;;21.31;72.18;100340.34;4984458;28;20030;-92
2023/05/23 12:52:58;;;;;;;37.53;9.98;;;;;;;21.36;69.42;100324.16;5014438;28;20398;-91
2023/05/23 12:55:24;;;;;;;16.70;7.28;;;;;;;21.34;69.07;100307.09;5000812;28;20534;-90
2023/05/23 12:57:50;;;;;;;216.88;25.25;;;;;;;21.64;69.34;100316.72;5010304;28;20441;-91
2023/05/23 13:00:16;;;;;;;36.00;7.90;;;;;;;21.76;67.51;100332.56;5011893;28;20065;-91
2023/05/23 13:02:41;;;;;;;39.35;9.95;;;;;;;21.75;68.25;100293.38;5017108;28;20153;-92
2023/05/23 13:05:09;;;;;;;46.53;9.88;;;;;;;22.04;66.74;100317.75;5017064;28;20548;-90
2023/05/23 13:07:34;;;;;;;52.13;9.35;;;;;;;22.13;66.35;100334.81;5014923;28;20117;-92
2023/05/23 13:10:01;;;;;;;38.20;8.82;;;;;;;22.29;66.19;100331.72;5016435;28;20109;-90
2023/05/23 13:12:27;;;;;;;32.47;8.30;;;;;;;22.21;64.95;100310.81;5016987;28;20033;-91
2023/05/23 13:14:53;;;;;;;47.22;8.57;;;;;;;22.39;64.54;100340.34;5016578;28;20022;-92
2023/05/23 13:17:18;;;;;;;28.85;6.93;;;;;;;22.27;63.85;100342.00;5016550;28;20091;-90
2023/05/23 13:19:44;;;;;;;26.30;8.25;;;;;;;22.30;62.97;100318.84;5018040;28;20047;-89
2023/05/23 13:22:09;;;;;;;25.05;7.70;;;;;;;22.08;63.40;100329.09;5021889;28;20105;-89
2023/05/23 13:24:36;;;;;;;41.08;10.85;;;;;;;22.18;63.88;100326.81;5036057;28;20036;-91
2023/05/23 13:27:03;;;;;;;15.98;7.68;;;;;;;22.16;63.13;100331.69;5035153;28;20029;-90
2023/05/23 13:29:29;;;;;;;22.88;7.60;;;;;;;21.80;63.94;100328.38;5037796;28;20037;-91
2023/05/23 13:31:55;;;;;;;17.88;7.80;;;;;;;21.38;65.60;100300.16;5022731;28;20146;-92
2023/05/23 13:34:21;;;;;;;46.38;10.43;;;;;;;21.54;65.78;100309.91;5016516;28;20065;-91
2023/05/23 13:36:46;;;;;;;25.33;8.75;;;;;;;21.39;66.08;100331.97;5017313;28;20050;-91
2023/05/23 13:39:11;;;;;;;27.58;8.40;;;;;;;21.54;66.23;100340.88;5028769;28;20030;-91
2023/05/23 13:41:37;;;;;;;15.68;7.05;;;;;;;21.59;65.82;100340.25;5001105;28;20022;-91
2023/05/23 13:44:02;;;;;;;20.98;7.05;;;;;;;21.48;66.13;100341.69;4998552;28;20031;-93
2023/05/23 13:46:28;;;;;;;11.57;6.28;;;;;;;21.42;65.56;100339.75;4997247;28;20034;-92
2023/05/23 13:48:53;;;;;;;21.00;6.55;;;;;;;21.39;65.48;100337.44;4997289;28;20452;-90
2023/05/23 13:51:19;;;;;;;17.83;7.32;;;;;;;21.26;65.86;100331.03;4998406;28;20046;-91
2023/05/23 13:53:45;;;;;;;14.52;6.18;;;;;;;21.12;66.08;100332.84;4981202;28;20038;-92
2023/05/23 13:56:12;;;;;;;16.92;7.03;;;;;;;21.19;65.54;100350.16;4999062;28;20485;-91
2023/05/23 13:58:37;;;;;;;101.95;14.85;;;;;;;21.00;66.65;100348.06;4998242;28;20455;-92
2023/05/23 14:01:03;;;;;;;46.63;9.73;;;;;;;20.72;66.70;100359.00;4997796;28;20077;-91
2023/05/23 14:03:28;;;;;;;52.97;10.23;;;;;;;20.67;67.29;100363.38;4998105;28;20066;-92
2023/05/23 14:05:54;;;;;;;22.27;7.70;;;;;;;20.55;67.70;100361.13;4998113;28;20054;-93
2023/05/23 14:08:19;;;;;;;41.08;8.00;;;;;;;20.31;69.11;100364.25;5027570;28;20085;-90
2023/05/23 14:10:45;;;;;;;40.92;10.07;;;;;;;20.35;69.55;100367.44;4994442;28;20042;-93
2023/05/23 14:13:11;;;;;;;18.27;6.78;;;;;;;20.45;69.70;100371.56;5010662;28;20038;-92
2023/05/23 14:15:37;;;;;;;39.08;8.60;;;;;;;20.52;69.82;100360.69;5012241;28;20018;-92
2023/05/23 14:18:02;;;;;;;33.13;10.02;;;;;;;20.75;69.08;100363.22;5004426;28;20030;-92
2023/05/23 14:20:28;;;;;;;26.38;8.38;;;;;;;20.42;68.71;100341.91;5007901;28;20037;-87
2023/05/23 14:22:54;;;;;;;36.30;7.88;;;;;;;20.79;68.79;100361.78;5009232;28;20032;-83
2023/05/23 14:25:20;;;;;;;17.83;6.82;;;;;;;20.67;67.74;100325.09;5021013;28;20102;-85
2023/05/23 14:27:45;;;;;;;44.60;10.27;;;;;;;21.05;67.95;100362.84;5025573;28;20084;-87
2023/05/23 14:30:11;;;;;;;24.23;6.85;;;;;;;20.95;67.43;100358.75;5026955;28;20497;-86
2023/05/23 14:32:40;;;;;;;41.03;9.75;;;;;;;20.88;68.71;100355.13;5015019;28;20037;-85
2023/05/23 14:35:07;;;;;;;34.92;8.85;;;;;;;20.77;69.07;100347.44;5011581;28;20133;-90
2023/05/23 14:37:35;;;;;;;18.25;9.38;;;;;;;20.58;70.45;100368.09;5010289;28;20477;-82
2023/05/23 14:40:01;;;;;;;14.38;7.53;;;;;;;20.36;72.91;100367.28;5011252;28;20468;-84
2023/05/23 14:42:27;;;;;;;11.18;8.02;;;;;;;20.16;73.44;100365.31;5010934;28;20064;-83
2023/05/23 14:44:52;;;;;;;27.33;8.02;;;;;;;19.97;75.50;100366.75;5011754;28;20530;-86
2023/05/23 14:47:19;;;;;;;12.43;7.97;;;;;;;19.89;76.57;100369.63;5012050;28;20034;-88
2023/05/23 14:49:44;;;;;;;12.00;7.78;;;;;;;19.77;78.45;100373.88;5011616;28;20101;-85
2023/05/23 14:52:11;;;;;;;22.05;8.63;;;;;;;19.57;79.38;100353.69;5026512;28;20042;-83
2023/05/23 14:54:39;;;;;;;17.42;10.13;;;;;;;19.60;80.35;100348.66;5011493;28;20119;-91
2023/05/23 14:57:05;;;;;;;22.10;10.35;;;;;;;19.67;82.65;100365.13;5014514;28;20025;-85
2023/05/23 14:59:31;;;;;;;26.65;10.80;;;;;;;19.62;82.77;100356.69;5020263;28;20056;-80
2023/05/23 15:01:57;;;;;;;25.70;10.60;;;;;;;19.60;82.03;100361.47;5014152;28;20030;-84
2023/05/23 15:04:23;;;;;;;26.83;12.23;;;;;;;19.42;82.03;100346.34;5011381;28;20408;-83
2023/05/23 15:06:49;;;;;;;20.45;9.23;;;;;;;19.36;82.60;100338.88;5013690;28;20559;-89
2023/05/23 15:09:16;;;;;;;23.17;11.25;;;;;;;19.43;82.33;100353.50;5012637;28;20022;-88
2023/05/23 15:11:48;;;;;;;28.48;13.30;;;;;;;19.54;82.59;100349.41;5012698;28;20044;-90
2023/05/23 15:14:13;;;;;;;22.38;9.45;;;;;;;19.52;82.90;100343.31;5015398;28;20054;-89
2023/05/23 15:16:39;;;;;;;22.10;9.27;;;;;;;19.59;82.79;100340.69;5016257;28;20045;-88
2023/05/23 15:19:05;;;;;;;15.02;10.07;;;;;;;19.51;82.48;100339.75;5028214;28;20026;-90
2023/05/23 15:21:31;;;;;;;20.45;9.05;;;;;;;19.49;82.07;100352.72;5036041;28;20110;-90
2023/05/23 15:23:57;;;;;;;18.98;10.70;;;;;;;19.35;81.69;100329.00;5044217;28;20033;-89
2023/05/23 15:26:23;;;;;;;24.02;10.95;;;;;;;19.33;82.26;100347.44;5033344;28;20397;-90
2023/05/23 15:28:48;;;;;;;18.25;9.80;;;;;;;19.23;81.22;100346.03;5049753;28;20029;-89
2023/05/23 15:31:14;;;;;;;23.17;9.57;;;;;;;19.15;80.74;100344.22;5032201;28;20133;-89
2023/05/23 15:33:39;;;;;;;18.75;11.55;;;;;;;19.21;81.08;100337.16;5031782;28;20030;-89
2023/05/23 15:36:06;;;;;;;15.30;8.55;;;;;;;19.04;80.59;100325.63;5030353;28;20513;-83
2023/05/23 15:38:31;;;;;;;29.20;8.88;;;;;;;19.22;80.73;100347.91;5031017;28;20092;-84
2023/05/23 15:40:58;;;;;;;21.95;7.85;;;;;;;19.38;79.55;100355.91;5030737;28;20060;-85
2023/05/23 15:43:24;;;;;;;23.33;8.93;;;;;;;19.40;79.33;100333.91;5031447;28;20385;-86
2023/05/23 15:45:50;;;;;;;18.88;7.90;;;;;;;19.50;78.13;100354.44;5030839;28;20041;-85
2023/05/23 15:48:16;;;;;;;30.98;6.47;;;;;;;19.54;77.62;100333.91;5030913;28;20323;-87
2023/05/23 15:50:41;;;;;;;29.67;7.28;;;;;;;19.54;76.29;100342.09;5031095;28;20029;-85
2023/05/23 15:53:07;;;;;;;22.85;6.68;;;;;;;19.43;74.36;100341.72;5030275;28;20021;-85
2023/05/23 15:55:32;;;;;;;19.65;5.43;;;;;;;19.33;72.42;100358.34;5031540;28;20072;-85
2023/05/23 15:57:58;;;;;;;21.45;5.93;;;;;;;19.09;72.66;100331.34;5034800;28;20115;-84
2023/05/23 16:00:23;;;;;;;31.77;6.68;;;;;;;19.27;72.72;100347.31;5037283;28;20034;-83
2023/05/23 16:02:49;;;;;;;27.92;5.60;;;;;;;19.24;72.26;100348.56;5038362;28;20104;-89
2023/05/23 16:05:14;;;;;;;56.08;7.95;;;;;;;19.36;72.13;100346.19;5036974;28;20146;-91
2023/05/23 16:07:40;;;;;;;41.20;7.22;;;;;;;19.20;72.16;100335.50;5035438;28;20025;-88
2023/05/23 16:10:06;;;;;;;42.45;8.43;;;;;;;19.15;72.01;100336.03;5037135;28;20555;-87
2023/05/23 16:12:31;;;;;;;76.10;10.52;;;;;;;19.24;70.72;100359.47;5039347;28;20021;-89
2023/05/23 16:14:57;;;;;;;95.05;9.98;;;;;;;18.99;70.14;100333.47;5040691;28;20026;-87
2023/05/23 16:17:22;;;;;;;21.50;5.88;;;;;;;18.97;72.07;100368.25;5020009;28;20045;-91
2023/05/23 16:19:48;;;;;;;56.13;18.48;;;;;;;18.91;72.94;100344.47;5010947;28;20041;-88
2023/05/23 16:22:13;;;;;;;18.42;5.65;;;;;;;18.93;74.50;100366.94;4997144;28;20034;-93
2023/05/23 16:24:39;;;;;;;19.55;6.32;;;;;;;18.90;75.37;100367.31;5013313;28;20402;-92
2023/05/23 16:27:05;;;;;;;32.55;6.97;;;;;;;18.73;75.80;100365.78;4996058;28;20050;-89
2023/05/23 16:29:30;;;;;;;22.52;7.70;;;;;;;18.74;76.53;100373.78;4995731;28;20135;-84
2023/05/23 16:31:55;;;;;;;33.50;6.90;;;;;;;18.53;77.01;100338.16;4999825;28;20034;-89
2023/05/23 16:34:21;;;;;;;41.00;7.75;;;;;;;18.67;77.11;100366.50;4999485;28;20113;-89
2023/05/23 16:36:46;;;;;;;60.70;7.97;;;;;;;18.61;77.27;100373.53;5000596;28;20082;-87
2023/05/23 16:39:13;;;;;;;11.93;5.38;;;;;;;18.68;76.57;100371.78;5005563;28;20038;-90
2023/05/23 16:41:38;;;;;;;34.67;7.07;;;;;;;18.63;77.08;100376.06;4999727;28;20053;-90
2023/05/23 16:44:04;;;;;;;19.70;6.22;;;;;;;18.67;77.01;100371.94;5002506;28;20026;-94
2023/05/23 16:46:29;;;;;;;22.45;6.80;;;;;;;18.62;77.02;100377.13;4998255;28;20485;-84
2023/05/23 16:48:55;;;;;;;20.10;5.65;;;;;;;18.52;77.63;100390.13;4998693;28;20045;-81
2023/05/23 16:51:20;;;;;;;25.40;6.20;;;;;;;18.37;77.24;100393.59;4996144;28;20053;-79
2023/05/23 16:53:46;;;;;;;45.28;9.35;;;;;;;18.36;76.85;100391.91;4996244;28;20022;-85
2023/05/23 16:56:11;;;;;;;14.98;6.22;;;;;;;18.26;76.53;100380.38;5008843;28;20030;-85
2023/05/23 16:58:37;;;;;;;46.72;7.20;;;;;;;18.27;75.07;100390.25;5017531;28;20025;-85
2023/05/23 17:01:06;;;;;;;70.18;11.13;;;;;;;18.23;74.35;100404.41;5033858;28;20037;-88
2023/05/23 17:03:31;;;;;;;55.55;9.52;;;;;;;18.31;74.12;100405.22;5033684;28;20106;-92
2023/05/23 17:05:57;;;;;;;96.30;12.88;;;;;;;18.36;73.80;100410.97;5016311;28;20034;-87
2023/05/23 17:08:22;;;;;;;32.25;8.52;;;;;;;18.32;73.88;100400.59;5018667;28;20077;-94
2023/05/23 17:10:48;;;;;;;55.38;9.40;;;;;;;18.31;73.49;100404.38;5013733;28;20034;-91
2023/05/23 17:13:13;;;;;;;43.20;9.30;;;;;;;18.21;73.44;100392.84;5061924;28;20046;-88
2023/05/23 17:15:39;;;;;;;62.75;10.05;;;;;;;18.16;73.43;100396.13;5057225;28;20026;-90
2023/05/23 17:18:04;;;;;;;47.90;7.97;;;;;;;18.04;73.11;100397.53;5036846;28;20033;-89
2023/05/23 17:20:30;;;;;;;35.85;8.25;;;;;;;18.15;73.11;100412.63;5053489;28;20029;-89
2023/05/23 17:22:55;;;;;;;29.38;7.95;;;;;;;18.17;73.04;100430.47;5044084;28;20022;-86
2023/05/23 17:25:21;;;;;;;49.67;11.40;;;;;;;18.16;73.12;100427.94;5029377;28;20033;-88
2023/05/23 17:27:46;;;;;;;43.95;9.02;;;;;;;18.07;72.95;100413.50;5026138;28;20029;-88
2023/05/23 17:30:17;;;;;;;58.42;9.07;;;;;;;17.96;72.97;100405.75;5018633;28;20059;-88
2023/05/23 17:32:44;;;;;;;60.83;10.75;;;;;;;18.07;72.76;100424.38;5012131;28;20053;-89
2023/05/23 17:35:09;;;;;;;42.15;8.93;;;;;;;17.94;72.84;100418.69;5013831;28;20089;-89
2023/05/23 17:37:35;;;;;;;53.03;9.90;;;;;;;18.00;72.63;100419.84;5013583;28;20068;-89
2023/05/23 17:40:00;;;;;;;45.15;9.52;;;;;;;17.90;72.99;100415.47;5014167;28;20032;-91
2023/05/23 17:42:26;;;;;;;19.63;6.95;;;;;;;18.01;72.88;100435.97;5016419;28;20045;-85
2023/05/23 17:44:51;;;;;;;41.78;8.85;;;;;;;17.96;73.03;100432.94;5027328;28;20029;-89
2023/05/23 17:47:17;;;;;;;79.18;10.65;;;;;;;18.04;73.15;100445.69;5024529;28;20196;-86
2023/05/23 17:49:43;;;;;;;75.78;11.70;;;;;;;18.13;73.20;100452.78;4997065;28;20041;-90
2023/05/23 17:52:08;;;;;;;45.05;9.50;;;;;;;18.14;73.63;100447.16;5012100;28;20038;-89
2023/05/23 17:54:36;;;;;;;18.38;8.40;;;;;;;18.07;73.69;100440.72;5011786;28;20115;-85
2023/05/23 17:57:02;;;;;;;70.43;10.35;;;;;;;18.10;73.86;100454.00;5008390;28;20132;-81
2023/05/23 17:59:27;;;;;;;56.60;10.10;;;;;;;18.10;73.41;100456.72;5010063;28;20034;-83
2023/05/23 18:01:53;;;;;;;33.75;8.73;;;;;;;18.05;73.34;100445.50;5009511;28;20038;-82
2023/05/23 18:04:18;;;;;;;37.13;10.18;;;;;;;18.19;73.31;100461.09;5012618;28;20030;-84
2023/05/23 18:06:44;;;;;;;108.85;17.02;;;;;;;18.21;73.34;100453.59;5009497;28;20045;-82
2023/05/23 18:09:09;;;;;;;49.78;15.15;;;;;;;18.28;73.92;100462.75;4996917;28;20030;-79
2023/05/23 18:11:35;;;;;;;33.53;12.35;;;;;;;18.29;74.49;100456.25;5010937;28;20032;-79
2023/05/23 18:14:01;;;;;;;82.28;17.48;;;;;;;18.26;74.76;100467.50;5008241;28;20050;-81
2023/05/23 18:16:27;;;;;;;60.13;14.27;;;;;;;18.11;75.03;100446.66;5010188;28;20026;-81
2023/05/23 18:18:52;;;;;;;68.90;16.58;;;;;;;18.12;75.07;100468.28;5010188;28;20038;-87
2023/05/23 18:21:18;;;;;;;48.80;14.02;;;;;;;18.06;75.61;100477.16;5011163;28;20053;-86
2023/05/23 18:23:43;;;;;;;70.45;15.90;;;;;;;17.87;76.30;100451.19;5011598;28;20062;-85
2023/05/23 18:26:09;;;;;;;72.00;14.73;;;;;;;18.00;76.39;100477.00;5011410;28;20485;-79
2023/05/23 18:28:34;;;;;;;88.93;15.75;;;;;;;17.98;76.73;100479.06;5012553;28;20030;-81
2023/05/23 18:31:00;;;;;;;49.80;15.30;;;;;;;17.93;76.11;100468.69;5010938;28;20037;-84
2023/05/23 18:33:28;;;;;;;43.97;14.93;;;;;;;17.87;75.67;100461.22;5011409;28;20579;-81
2023/05/23 18:35:53;;;;;;;41.53;11.45;;;;;;;17.89;75.25;100467.34;5011378;28;20061;-82
2023/05/23 18:38:19;;;;;;;47.85;13.52;;;;;;;17.83;75.11;100465.31;5012293;28;20026;-85
2023/05/23 18:40:45;;;;;;;33.10;12.77;;;;;;;17.87;74.46;100483.00;5012942;28;20041;-89
2023/05/23 18:43:12;;;;;;;47.58;13.95;;;;;;;17.67;74.28;100454.50;5013923;28;20094;-88
2023/05/23 18:45:37;;;;;;;55.78;13.95;;;;;;;17.76;74.95;100480.66;5031578;28;20046;-90
2023/05/23 18:48:03;;;;;;;70.60;14.48;;;;;;;17.69;75.12;100477.78;5032676;28;20477;-89
2023/05/23 18:50:29;;;;;;;76.32;15.70;;;;;;;17.70;75.58;100475.91;5015180;28;20048;-88